Pagina principale
METAR-TAF:

METAR-TAF

Aeroporti :

Aeroporto Internazionale di Cracovia-Balice-Giovanni Paolo II

Cracovia, Polonia

latitudine: 50-05N, longitudine: 019-48E, altezza: 237 m

Osservazione

Il bollettino è stato emesso 32 minuti fa, alle 14:30 UTC
Vento 4 kt da ovest, variando fra sud-ovest e nord/nord-ovest
Temperature 27°C
Umidità 45%
Pressione 1015 hPa
Visibilità 10 km o più
Poco nuvoloso ad un'altezza di 6000 ft

METAR: EPKK 171430Z 27004KT 220V330 9999 FEW060 27/14 Q1015

Ora: 17:02 (15:02 UTC)

Previsione

Il bollettino è stato emesso 3 ore e 32 minuti fa, alle 11:30 UTC
Previsione valida dal 17 alle 12 UTC al 18 alle 12 UTC
Vento 5 kt da sud-ovest
Visibilità 10 km o più
nessuna nube inferiore a 1500 m e nessun cumulonembo

TAF: EPKK 171130Z 1712/1812 22005KT CAVOK

Osservazioni e previsioni meteorologiche di più di 4000 aeroporti (messaggi METAR e TAF).

Le stazioni disponibili sono rappresentate dai dischi gialli e rossi sulla carta.

Puntare il mouse per vedere il nome della stazione.

Clicca sopra per visualizzare le osservazioni e previsioni meteorologiche.

Per cambiare la mappa : fare clic sui pulsanti verdi con una croce nera per ingrandire, il pulsante verde con un trattino per diminuire, o sulla freccia verde per le mappe adiacenti.


METAR-TAF: